sensor_id;sensor_type;location;lat;lon;timestamp;P1;durP1;ratioP1;P2;durP2;ratioP2
13269;SDS011;6703;51.994;7.570;2023-07-30T00:01:56;10.27;;;2.97;;
13269;SDS011;6703;51.994;7.570;2023-07-30T00:04:25;10.83;;;2.90;;
13269;SDS011;6703;51.994;7.570;2023-07-30T00:06:53;14.68;;;3.25;;
13269;SDS011;6703;51.994;7.570;2023-07-30T00:09:21;8.27;;;2.97;;
13269;SDS011;6703;51.994;7.570;2023-07-30T00:14:30;10.87;;;2.77;;
13269;SDS011;6703;51.994;7.570;2023-07-30T00:16:58;13.33;;;3.17;;
13269;SDS011;6703;51.994;7.570;2023-07-30T00:19:25;12.75;;;3.38;;
13269;SDS011;6703;51.994;7.570;2023-07-30T00:21:53;16.70;;;3.75;;
13269;SDS011;6703;51.994;7.570;2023-07-30T00:24:21;13.65;;;3.30;;
13269;SDS011;6703;51.994;7.570;2023-07-30T00:26:49;8.88;;;3.42;;
13269;SDS011;6703;51.994;7.570;2023-07-30T00:29:17;12.20;;;3.28;;
13269;SDS011;6703;51.994;7.570;2023-07-30T00:31:47;16.90;;;4.28;;
13269;SDS011;6703;51.994;7.570;2023-07-30T00:34:14;15.20;;;3.67;;
13269;SDS011;6703;51.994;7.570;2023-07-30T00:36:42;15.73;;;4.83;;
13269;SDS011;6703;51.994;7.570;2023-07-30T00:39:10;15.98;;;4.45;;
13269;SDS011;6703;51.994;7.570;2023-07-30T00:41:38;15.37;;;5.40;;
13269;SDS011;6703;51.994;7.570;2023-07-30T00:44:06;11.65;;;5.47;;
13269;SDS011;6703;51.994;7.570;2023-07-30T00:46:33;18.88;;;5.15;;
13269;SDS011;6703;51.994;7.570;2023-07-30T00:49:03;18.73;;;6.53;;
13269;SDS011;6703;51.994;7.570;2023-07-30T00:51:31;17.20;;;6.13;;
13269;SDS011;6703;51.994;7.570;2023-07-30T00:53:59;16.50;;;6.35;;
13269;SDS011;6703;51.994;7.570;2023-07-30T00:56:27;21.02;;;6.47;;
13269;SDS011;6703;51.994;7.570;2023-07-30T00:58:55;21.02;;;7.32;;
13269;SDS011;6703;51.994;7.570;2023-07-30T01:01:22;20.15;;;6.75;;
13269;SDS011;6703;51.994;7.570;2023-07-30T01:03:50;20.92;;;7.22;;
13269;SDS011;6703;51.994;7.570;2023-07-30T01:06:20;20.17;;;7.33;;
13269;SDS011;6703;51.994;7.570;2023-07-30T01:08:48;25.98;;;7.82;;
13269;SDS011;6703;51.994;7.570;2023-07-30T01:11:16;19.17;;;7.85;;
13269;SDS011;6703;51.994;7.570;2023-07-30T01:13:43;21.92;;;8.10;;
13269;SDS011;6703;51.994;7.570;2023-07-30T01:16:14;26.55;;;8.45;;
13269;SDS011;6703;51.994;7.570;2023-07-30T01:18:41;25.58;;;8.50;;
13269;SDS011;6703;51.994;7.570;2023-07-30T01:21:10;23.88;;;8.70;;
13269;SDS011;6703;51.994;7.570;2023-07-30T01:23:38;31.05;;;9.40;;
13269;SDS011;6703;51.994;7.570;2023-07-30T01:26:07;32.63;;;9.50;;
13269;SDS011;6703;51.994;7.570;2023-07-30T01:28:37;24.13;;;8.57;;
13269;SDS011;6703;51.994;7.570;2023-07-30T01:31:08;23.33;;;8.23;;
13269;SDS011;6703;51.994;7.570;2023-07-30T01:33:36;27.85;;;8.23;;
13269;SDS011;6703;51.994;7.570;2023-07-30T01:36:04;22.15;;;7.85;;
13269;SDS011;6703;51.994;7.570;2023-07-30T01:38:34;26.60;;;8.38;;
13269;SDS011;6703;51.994;7.570;2023-07-30T01:41:02;27.77;;;8.10;;
13269;SDS011;6703;51.994;7.570;2023-07-30T01:43:30;24.33;;;7.90;;
13269;SDS011;6703;51.994;7.570;2023-07-30T01:45:58;30.50;;;8.25;;
13269;SDS011;6703;51.994;7.570;2023-07-30T01:48:26;25.88;;;7.93;;
13269;SDS011;6703;51.994;7.570;2023-07-30T01:50:54;27.40;;;8.75;;
13269;SDS011;6703;51.994;7.570;2023-07-30T01:53:21;26.88;;;8.70;;
13269;SDS011;6703;51.994;7.570;2023-07-30T01:55:50;32.05;;;9.10;;
13269;SDS011;6703;51.994;7.570;2023-07-30T01:58:18;29.27;;;8.35;;
13269;SDS011;6703;51.994;7.570;2023-07-30T02:00:46;25.60;;;8.68;;
13269;SDS011;6703;51.994;7.570;2023-07-30T02:03:14;32.58;;;8.40;;
13269;SDS011;6703;51.994;7.570;2023-07-30T02:05:42;29.63;;;9.10;;
13269;SDS011;6703;51.994;7.570;2023-07-30T02:08:27;21.35;;;8.32;;
13269;SDS011;6703;51.994;7.570;2023-07-30T02:10:57;33.45;;;8.30;;
13269;SDS011;6703;51.994;7.570;2023-07-30T02:13:25;27.75;;;8.85;;
13269;SDS011;6703;51.994;7.570;2023-07-30T02:15:53;26.05;;;8.75;;
13269;SDS011;6703;51.994;7.570;2023-07-30T02:18:21;27.85;;;8.48;;
13269;SDS011;6703;51.994;7.570;2023-07-30T02:20:49;24.33;;;8.80;;
13269;SDS011;6703;51.994;7.570;2023-07-30T02:23:17;27.80;;;8.20;;
13269;SDS011;6703;51.994;7.570;2023-07-30T02:25:44;30.43;;;8.00;;
13269;SDS011;6703;51.994;7.570;2023-07-30T02:28:14;27.00;;;8.60;;
13269;SDS011;6703;51.994;7.570;2023-07-30T02:30:41;33.70;;;8.85;;
13269;SDS011;6703;51.994;7.570;2023-07-30T02:33:09;25.35;;;7.90;;
13269;SDS011;6703;51.994;7.570;2023-07-30T02:35:37;24.90;;;7.70;;
13269;SDS011;6703;51.994;7.570;2023-07-30T02:38:05;29.80;;;8.20;;
13269;SDS011;6703;51.994;7.570;2023-07-30T02:40:33;28.42;;;7.38;;
13269;SDS011;6703;51.994;7.570;2023-07-30T02:43:00;22.80;;;6.60;;
13269;SDS011;6703;51.994;7.570;2023-07-30T02:45:29;28.50;;;7.07;;
13269;SDS011;6703;51.994;7.570;2023-07-30T02:47:57;18.77;;;6.18;;
13269;SDS011;6703;51.994;7.570;2023-07-30T02:50:25;27.90;;;6.88;;
13269;SDS011;6703;51.994;7.570;2023-07-30T02:52:53;23.48;;;6.75;;
13269;SDS011;6703;51.994;7.570;2023-07-30T02:55:21;26.58;;;6.40;;
13269;SDS011;6703;51.994;7.570;2023-07-30T02:57:48;22.53;;;6.03;;
13269;SDS011;6703;51.994;7.570;2023-07-30T03:00:17;25.95;;;5.47;;
13269;SDS011;6703;51.994;7.570;2023-07-30T03:02:46;29.25;;;5.97;;
13269;SDS011;6703;51.994;7.570;2023-07-30T03:05:14;25.77;;;5.32;;
13269;SDS011;6703;51.994;7.570;2023-07-30T03:07:42;13.70;;;4.70;;
13269;SDS011;6703;51.994;7.570;2023-07-30T03:10:09;16.35;;;4.75;;
13269;SDS011;6703;51.994;7.570;2023-07-30T03:12:37;10.93;;;4.88;;
13269;SDS011;6703;51.994;7.570;2023-07-30T03:15:05;16.50;;;4.53;;
13269;SDS011;6703;51.994;7.570;2023-07-30T03:17:33;15.68;;;4.50;;
13269;SDS011;6703;51.994;7.570;2023-07-30T03:20:02;19.67;;;4.78;;
13269;SDS011;6703;51.994;7.570;2023-07-30T03:22:31;15.95;;;4.70;;
13269;SDS011;6703;51.994;7.570;2023-07-30T03:24:59;14.47;;;4.30;;
13269;SDS011;6703;51.994;7.570;2023-07-30T03:27:26;14.85;;;4.18;;
13269;SDS011;6703;51.994;7.570;2023-07-30T03:29:54;20.02;;;4.13;;
13269;SDS011;6703;51.994;7.570;2023-07-30T03:32:22;13.43;;;4.22;;
13269;SDS011;6703;51.994;7.570;2023-07-30T03:34:50;17.60;;;4.53;;
13269;SDS011;6703;51.994;7.570;2023-07-30T03:37:19;20.20;;;4.23;;
13269;SDS011;6703;51.994;7.570;2023-07-30T03:39:47;20.02;;;4.97;;
13269;SDS011;6703;51.994;7.570;2023-07-30T03:42:15;16.02;;;4.18;;
13269;SDS011;6703;51.994;7.570;2023-07-30T03:44:43;13.50;;;4.05;;
13269;SDS011;6703;51.994;7.570;2023-07-30T03:47:10;15.43;;;3.83;;
13269;SDS011;6703;51.994;7.570;2023-07-30T03:49:38;14.52;;;3.75;;
13269;SDS011;6703;51.994;7.570;2023-07-30T03:52:06;17.83;;;4.00;;
13269;SDS011;6703;51.994;7.570;2023-07-30T03:54:35;14.50;;;4.20;;
13269;SDS011;6703;51.994;7.570;2023-07-30T03:57:03;20.50;;;4.00;;
13269;SDS011;6703;51.994;7.570;2023-07-30T03:59:31;26.00;;;4.40;;
13269;SDS011;6703;51.994;7.570;2023-07-30T04:01:59;16.02;;;4.18;;
13269;SDS011;6703;51.994;7.570;2023-07-30T04:04:26;15.30;;;4.20;;
13269;SDS011;6703;51.994;7.570;2023-07-30T04:06:54;21.73;;;4.47;;
13269;SDS011;6703;51.994;7.570;2023-07-30T04:09:22;17.90;;;4.05;;
13269;SDS011;6703;51.994;7.570;2023-07-30T04:11:51;16.30;;;4.07;;
13269;SDS011;6703;51.994;7.570;2023-07-30T04:14:19;18.08;;;4.28;;
13269;SDS011;6703;51.994;7.570;2023-07-30T04:16:47;14.48;;;4.13;;
13269;SDS011;6703;51.994;7.570;2023-07-30T04:19:15;12.00;;;3.97;;
13269;SDS011;6703;51.994;7.570;2023-07-30T04:21:43;13.30;;;3.95;;
13269;SDS011;6703;51.994;7.570;2023-07-30T04:24:11;11.47;;;3.60;;
13269;SDS011;6703;51.994;7.570;2023-07-30T04:26:38;15.20;;;4.00;;
13269;SDS011;6703;51.994;7.570;2023-07-30T04:29:07;20.67;;;4.25;;
13269;SDS011;6703;51.994;7.570;2023-07-30T04:31:36;15.82;;;4.13;;
13269;SDS011;6703;51.994;7.570;2023-07-30T04:34:05;18.38;;;3.80;;
13269;SDS011;6703;51.994;7.570;2023-07-30T04:36:32;20.33;;;3.92;;
13269;SDS011;6703;51.994;7.570;2023-07-30T04:39:00;16.83;;;3.72;;
13269;SDS011;6703;51.994;7.570;2023-07-30T04:41:28;12.98;;;3.55;;
13269;SDS011;6703;51.994;7.570;2023-07-30T04:43:56;13.02;;;3.78;;
13269;SDS011;6703;51.994;7.570;2023-07-30T04:46:25;8.80;;;3.10;;
13269;SDS011;6703;51.994;7.570;2023-07-30T04:48:53;16.90;;;3.78;;
13269;SDS011;6703;51.994;7.570;2023-07-30T04:51:20;14.60;;;4.63;;
13269;SDS011;6703;51.994;7.570;2023-07-30T04:53:48;13.48;;;3.50;;
13269;SDS011;6703;51.994;7.570;2023-07-30T04:56:16;14.38;;;3.97;;
13269;SDS011;6703;51.994;7.570;2023-07-30T04:58:43;16.25;;;3.30;;
13269;SDS011;6703;51.994;7.570;2023-07-30T05:01:12;12.63;;;3.30;;
13269;SDS011;6703;51.994;7.570;2023-07-30T05:03:41;11.98;;;3.50;;
13269;SDS011;6703;51.994;7.570;2023-07-30T05:06:09;15.93;;;4.10;;
13269;SDS011;6703;51.994;7.570;2023-07-30T05:08:36;10.18;;;2.63;;
13269;SDS011;6703;51.994;7.570;2023-07-30T05:11:04;13.17;;;3.03;;
13269;SDS011;6703;51.994;7.570;2023-07-30T05:13:32;12.68;;;3.15;;
13269;SDS011;6703;51.994;7.570;2023-07-30T05:15:59;10.75;;;2.83;;
13269;SDS011;6703;51.994;7.570;2023-07-30T05:18:28;12.32;;;3.00;;
13269;SDS011;6703;51.994;7.570;2023-07-30T05:20:57;21.13;;;4.00;;
13269;SDS011;6703;51.994;7.570;2023-07-30T05:23:25;18.08;;;3.50;;
13269;SDS011;6703;51.994;7.570;2023-07-30T05:25:53;13.52;;;3.45;;
13269;SDS011;6703;51.994;7.570;2023-07-30T05:28:20;17.13;;;3.83;;
13269;SDS011;6703;51.994;7.570;2023-07-30T05:30:48;13.10;;;4.25;;
13269;SDS011;6703;51.994;7.570;2023-07-30T05:33:16;16.23;;;4.53;;
13269;SDS011;6703;51.994;7.570;2023-07-30T05:35:44;16.48;;;4.85;;
13269;SDS011;6703;51.994;7.570;2023-07-30T05:38:13;18.23;;;5.03;;
13269;SDS011;6703;51.994;7.570;2023-07-30T05:40:41;16.50;;;6.30;;
13269;SDS011;6703;51.994;7.570;2023-07-30T05:43:09;23.02;;;7.05;;
13269;SDS011;6703;51.994;7.570;2023-07-30T05:45:36;25.25;;;7.38;;
13269;SDS011;6703;51.994;7.570;2023-07-30T05:48:04;21.50;;;8.15;;
13269;SDS011;6703;51.994;7.570;2023-07-30T05:50:32;27.03;;;7.57;;
13269;SDS011;6703;51.994;7.570;2023-07-30T05:53:00;27.75;;;7.97;;
13269;SDS011;6703;51.994;7.570;2023-07-30T05:55:29;24.02;;;7.68;;
13269;SDS011;6703;51.994;7.570;2023-07-30T05:57:57;26.55;;;7.38;;
13269;SDS011;6703;51.994;7.570;2023-07-30T06:00:25;21.23;;;7.65;;
13269;SDS011;6703;51.994;7.570;2023-07-30T06:02:53;25.30;;;7.63;;
13269;SDS011;6703;51.994;7.570;2023-07-30T06:05:20;22.63;;;7.30;;
13269;SDS011;6703;51.994;7.570;2023-07-30T06:07:48;31.07;;;8.43;;
13269;SDS011;6703;51.994;7.570;2023-07-30T06:10:16;21.60;;;7.10;;
13269;SDS011;6703;51.994;7.570;2023-07-30T06:12:45;26.73;;;7.63;;
13269;SDS011;6703;51.994;7.570;2023-07-30T06:15:13;26.58;;;7.93;;
13269;SDS011;6703;51.994;7.570;2023-07-30T06:17:41;23.15;;;7.57;;
13269;SDS011;6703;51.994;7.570;2023-07-30T06:20:09;29.08;;;8.07;;
13269;SDS011;6703;51.994;7.570;2023-07-30T06:22:37;27.83;;;7.57;;
13269;SDS011;6703;51.994;7.570;2023-07-30T06:25:05;24.08;;;8.00;;
13269;SDS011;6703;51.994;7.570;2023-07-30T06:27:33;26.08;;;8.30;;
13269;SDS011;6703;51.994;7.570;2023-07-30T06:30:02;23.25;;;7.88;;
13269;SDS011;6703;51.994;7.570;2023-07-30T06:32:31;30.40;;;8.90;;
13269;SDS011;6703;51.994;7.570;2023-07-30T06:34:58;28.17;;;8.73;;
13269;SDS011;6703;51.994;7.570;2023-07-30T06:37:26;27.67;;;9.10;;
13269;SDS011;6703;51.994;7.570;2023-07-30T06:39:54;25.98;;;8.98;;
13269;SDS011;6703;51.994;7.570;2023-07-30T06:42:22;30.63;;;9.23;;
13269;SDS011;6703;51.994;7.570;2023-07-30T06:44:49;29.80;;;9.85;;
13269;SDS011;6703;51.994;7.570;2023-07-30T06:47:18;31.38;;;9.73;;
13269;SDS011;6703;51.994;7.570;2023-07-30T06:49:46;32.95;;;10.38;;
13269;SDS011;6703;51.994;7.570;2023-07-30T06:52:14;35.13;;;10.27;;
13269;SDS011;6703;51.994;7.570;2023-07-30T06:54:42;34.63;;;10.52;;
13269;SDS011;6703;51.994;7.570;2023-07-30T06:57:09;30.77;;;9.63;;
13269;SDS011;6703;51.994;7.570;2023-07-30T06:59:37;32.30;;;10.52;;
13269;SDS011;6703;51.994;7.570;2023-07-30T07:02:05;26.67;;;10.25;;
13269;SDS011;6703;51.994;7.570;2023-07-30T07:04:34;31.85;;;10.02;;
13269;SDS011;6703;51.994;7.570;2023-07-30T07:07:02;38.95;;;10.85;;
13269;SDS011;6703;51.994;7.570;2023-07-30T07:09:30;28.48;;;9.65;;
13269;SDS011;6703;51.994;7.570;2023-07-30T07:11:58;32.67;;;10.20;;
13269;SDS011;6703;51.994;7.570;2023-07-30T07:14:27;29.88;;;9.35;;
13269;SDS011;6703;51.994;7.570;2023-07-30T07:16:54;24.90;;;8.90;;
13269;SDS011;6703;51.994;7.570;2023-07-30T07:19:23;32.83;;;8.75;;
13269;SDS011;6703;51.994;7.570;2023-07-30T07:21:52;26.95;;;9.00;;
13269;SDS011;6703;51.994;7.570;2023-07-30T07:24:20;22.48;;;9.15;;
13269;SDS011;6703;51.994;7.570;2023-07-30T07:26:47;25.92;;;8.57;;
13269;SDS011;6703;51.994;7.570;2023-07-30T07:29:15;31.02;;;8.85;;
13269;SDS011;6703;51.994;7.570;2023-07-30T07:31:44;24.55;;;8.50;;
13269;SDS011;6703;51.994;7.570;2023-07-30T07:34:12;21.25;;;7.78;;
13269;SDS011;6703;51.994;7.570;2023-07-30T07:36:40;24.35;;;8.07;;
13269;SDS011;6703;51.994;7.570;2023-07-30T07:39:10;27.45;;;8.70;;
13269;SDS011;6703;51.994;7.570;2023-07-30T07:41:37;29.25;;;9.05;;
13269;SDS011;6703;51.994;7.570;2023-07-30T07:44:05;32.78;;;9.75;;
13269;SDS011;6703;51.994;7.570;2023-07-30T07:46:44;29.00;;;8.02;;
13269;SDS011;6703;51.994;7.570;2023-07-30T07:49:11;27.95;;;7.93;;
13269;SDS011;6703;51.994;7.570;2023-07-30T07:51:39;28.23;;;7.80;;
13269;SDS011;6703;51.994;7.570;2023-07-30T07:54:07;24.33;;;7.90;;
13269;SDS011;6703;51.994;7.570;2023-07-30T07:56:36;33.10;;;8.02;;
13269;SDS011;6703;51.994;7.570;2023-07-30T07:59:04;21.85;;;7.97;;
13269;SDS011;6703;51.994;7.570;2023-07-30T08:01:32;19.77;;;6.60;;
13269;SDS011;6703;51.994;7.570;2023-07-30T08:03:59;26.10;;;7.60;;
13269;SDS011;6703;51.994;7.570;2023-07-30T08:06:27;23.58;;;7.10;;
13269;SDS011;6703;51.994;7.570;2023-07-30T08:08:55;28.33;;;6.78;;
13269;SDS011;6703;51.994;7.570;2023-07-30T08:11:23;17.73;;;5.57;;
13269;SDS011;6703;51.994;7.570;2023-07-30T08:13:52;29.08;;;7.03;;
13269;SDS011;6703;51.994;7.570;2023-07-30T08:16:20;25.25;;;7.15;;
13269;SDS011;6703;51.994;7.570;2023-07-30T08:18:48;23.83;;;6.70;;
13269;SDS011;6703;51.994;7.570;2023-07-30T08:21:16;26.70;;;7.30;;
13269;SDS011;6703;51.994;7.570;2023-07-30T08:23:46;22.33;;;6.80;;
13269;SDS011;6703;51.994;7.570;2023-07-30T08:26:14;21.67;;;6.45;;
13269;SDS011;6703;51.994;7.570;2023-07-30T08:28:42;24.98;;;6.63;;
13269;SDS011;6703;51.994;7.570;2023-07-30T08:31:11;25.35;;;6.60;;
13269;SDS011;6703;51.994;7.570;2023-07-30T08:33:38;26.23;;;6.82;;
13269;SDS011;6703;51.994;7.570;2023-07-30T08:36:06;21.85;;;6.88;;
13269;SDS011;6703;51.994;7.570;2023-07-30T08:38:34;32.20;;;7.37;;
13269;SDS011;6703;51.994;7.570;2023-07-30T08:41:02;20.13;;;6.30;;
13269;SDS011;6703;51.994;7.570;2023-07-30T08:43:29;21.33;;;6.63;;
13269;SDS011;6703;51.994;7.570;2023-07-30T08:45:59;20.70;;;6.20;;
13269;SDS011;6703;51.994;7.570;2023-07-30T08:48:28;28.98;;;7.00;;
13269;SDS011;6703;51.994;7.570;2023-07-30T08:50:56;22.50;;;6.47;;
13269;SDS011;6703;51.994;7.570;2023-07-30T08:53:25;22.58;;;6.25;;
13269;SDS011;6703;51.994;7.570;2023-07-30T08:55:53;25.83;;;6.82;;
13269;SDS011;6703;51.994;7.570;2023-07-30T08:58:21;21.48;;;6.03;;
13269;SDS011;6703;51.994;7.570;2023-07-30T09:00:51;23.87;;;6.00;;
13269;SDS011;6703;51.994;7.570;2023-07-30T09:03:20;17.80;;;5.60;;
13269;SDS011;6703;51.994;7.570;2023-07-30T09:05:52;21.48;;;5.80;;
13269;SDS011;6703;51.994;7.570;2023-07-30T09:08:19;16.73;;;5.47;;
13269;SDS011;6703;51.994;7.570;2023-07-30T09:10:49;21.17;;;5.78;;
13269;SDS011;6703;51.994;7.570;2023-07-30T09:13:20;21.88;;;6.05;;
13269;SDS011;6703;51.994;7.570;2023-07-30T09:15:49;24.95;;;5.25;;
13269;SDS011;6703;51.994;7.570;2023-07-30T09:18:17;27.17;;;5.65;;
13269;SDS011;6703;51.994;7.570;2023-07-30T09:20:45;20.98;;;5.28;;
13269;SDS011;6703;51.994;7.570;2023-07-30T09:23:15;17.80;;;5.13;;
13269;SDS011;6703;51.994;7.570;2023-07-30T09:25:44;22.77;;;5.07;;
13269;SDS011;6703;51.994;7.570;2023-07-30T09:28:15;28.38;;;5.80;;
13269;SDS011;6703;51.994;7.570;2023-07-30T09:30:48;24.45;;;5.50;;
13269;SDS011;6703;51.994;7.570;2023-07-30T09:33:18;16.50;;;4.30;;
13269;SDS011;6703;51.994;7.570;2023-07-30T09:35:46;16.42;;;4.00;;
13269;SDS011;6703;51.994;7.570;2023-07-30T09:38:16;18.45;;;3.90;;
13269;SDS011;6703;51.994;7.570;2023-07-30T09:40:46;16.40;;;3.65;;
13269;SDS011;6703;51.994;7.570;2023-07-30T09:43:15;18.15;;;3.92;;
13269;SDS011;6703;51.994;7.570;2023-07-30T09:45:44;13.00;;;3.40;;
13269;SDS011;6703;51.994;7.570;2023-07-30T09:48:13;10.38;;;3.05;;
13269;SDS011;6703;51.994;7.570;2023-07-30T09:50:41;14.77;;;3.78;;
13269;SDS011;6703;51.994;7.570;2023-07-30T09:53:10;18.13;;;3.70;;
13269;SDS011;6703;51.994;7.570;2023-07-30T09:55:40;18.23;;;3.65;;
13269;SDS011;6703;51.994;7.570;2023-07-30T09:58:08;12.02;;;3.10;;
13269;SDS011;6703;51.994;7.570;2023-07-30T10:00:37;15.73;;;3.00;;
13269;SDS011;6703;51.994;7.570;2023-07-30T10:03:05;15.37;;;3.07;;
13269;SDS011;6703;51.994;7.570;2023-07-30T10:05:37;13.15;;;3.80;;
13269;SDS011;6703;51.994;7.570;2023-07-30T10:08:08;14.37;;;2.77;;
13269;SDS011;6703;51.994;7.570;2023-07-30T10:10:37;11.40;;;2.50;;
13269;SDS011;6703;51.994;7.570;2023-07-30T10:13:06;8.82;;;2.28;;
13269;SDS011;6703;51.994;7.570;2023-07-30T10:15:35;10.00;;;2.33;;
13269;SDS011;6703;51.994;7.570;2023-07-30T10:18:04;14.88;;;3.25;;
13269;SDS011;6703;51.994;7.570;2023-07-30T10:20:33;11.75;;;2.90;;
13269;SDS011;6703;51.994;7.570;2023-07-30T10:23:00;13.98;;;2.40;;
13269;SDS011;6703;51.994;7.570;2023-07-30T10:25:29;9.10;;;2.10;;
13269;SDS011;6703;51.994;7.570;2023-07-30T10:27:58;7.55;;;1.98;;
13269;SDS011;6703;51.994;7.570;2023-07-30T10:30:31;11.87;;;2.00;;
13269;SDS011;6703;51.994;7.570;2023-07-30T10:33:00;14.40;;;1.92;;
13269;SDS011;6703;51.994;7.570;2023-07-30T10:35:36;8.57;;;2.30;;
13269;SDS011;6703;51.994;7.570;2023-07-30T10:38:12;10.25;;;2.00;;
13269;SDS011;6703;51.994;7.570;2023-07-30T10:40:41;10.15;;;2.03;;
13269;SDS011;6703;51.994;7.570;2023-07-30T10:43:15;9.45;;;1.70;;
13269;SDS011;6703;51.994;7.570;2023-07-30T10:45:51;10.55;;;1.90;;
13269;SDS011;6703;51.994;7.570;2023-07-30T10:48:28;8.35;;;1.50;;
13269;SDS011;6703;51.994;7.570;2023-07-30T10:50:57;9.05;;;1.80;;
13269;SDS011;6703;51.994;7.570;2023-07-30T10:53:25;11.05;;;2.30;;
13269;SDS011;6703;51.994;7.570;2023-07-30T10:55:53;5.95;;;1.15;;
13269;SDS011;6703;51.994;7.570;2023-07-30T10:58:25;8.48;;;2.40;;
13269;SDS011;6703;51.994;7.570;2023-07-30T11:00:54;8.13;;;1.38;;
13269;SDS011;6703;51.994;7.570;2023-07-30T11:03:23;6.93;;;1.33;;
13269;SDS011;6703;51.994;7.570;2023-07-30T11:05:52;5.88;;;1.20;;
13269;SDS011;6703;51.994;7.570;2023-07-30T11:08:21;8.27;;;1.70;;
13269;SDS011;6703;51.994;7.570;2023-07-30T11:10:49;9.07;;;1.60;;
13269;SDS011;6703;51.994;7.570;2023-07-30T11:13:17;7.97;;;1.50;;
13269;SDS011;6703;51.994;7.570;2023-07-30T11:15:48;6.95;;;1.60;;
13269;SDS011;6703;51.994;7.570;2023-07-30T11:18:17;8.90;;;1.70;;
13269;SDS011;6703;51.994;7.570;2023-07-30T11:20:44;9.30;;;1.55;;
13269;SDS011;6703;51.994;7.570;2023-07-30T11:23:22;8.73;;;1.40;;
13269;SDS011;6703;51.994;7.570;2023-07-30T11:25:50;10.27;;;1.58;;
13269;SDS011;6703;51.994;7.570;2023-07-30T11:28:27;9.15;;;1.63;;
13269;SDS011;6703;51.994;7.570;2023-07-30T11:31:00;5.90;;;1.13;;
13269;SDS011;6703;51.994;7.570;2023-07-30T11:33:30;9.75;;;1.73;;
13269;SDS011;6703;51.994;7.570;2023-07-30T11:35:59;9.73;;;1.70;;
13269;SDS011;6703;51.994;7.570;2023-07-30T11:38:27;10.05;;;1.50;;
13269;SDS011;6703;51.994;7.570;2023-07-30T11:40:56;11.10;;;2.35;;
13269;SDS011;6703;51.994;7.570;2023-07-30T11:43:24;8.43;;;1.50;;
13269;SDS011;6703;51.994;7.570;2023-07-30T11:49:10;11.88;;;3.08;;
13269;SDS011;6703;51.994;7.570;2023-07-30T11:51:38;6.57;;;1.60;;
13269;SDS011;6703;51.994;7.570;2023-07-30T11:56:37;12.40;;;2.80;;
13269;SDS011;6703;51.994;7.570;2023-07-30T11:59:05;9.95;;;2.88;;
13269;SDS011;6703;51.994;7.570;2023-07-30T12:01:35;6.78;;;1.80;;
13269;SDS011;6703;51.994;7.570;2023-07-30T12:04:05;6.20;;;1.35;;
13269;SDS011;6703;51.994;7.570;2023-07-30T12:06:39;7.53;;;1.42;;
13269;SDS011;6703;51.994;7.570;2023-07-30T12:09:11;11.70;;;1.90;;
13269;SDS011;6703;51.994;7.570;2023-07-30T12:11:46;9.50;;;1.80;;
13269;SDS011;6703;51.994;7.570;2023-07-30T12:14:15;8.13;;;1.60;;
13269;SDS011;6703;51.994;7.570;2023-07-30T12:16:43;8.95;;;1.40;;
13269;SDS011;6703;51.994;7.570;2023-07-30T12:19:12;10.05;;;2.10;;
13269;SDS011;6703;51.994;7.570;2023-07-30T12:21:39;12.50;;;1.80;;
13269;SDS011;6703;51.994;7.570;2023-07-30T12:24:08;7.47;;;1.38;;
13269;SDS011;6703;51.994;7.570;2023-07-30T12:26:35;11.05;;;2.15;;
13269;SDS011;6703;51.994;7.570;2023-07-30T12:29:03;7.40;;;1.93;;
13269;SDS011;6703;51.994;7.570;2023-07-30T12:31:31;5.53;;;1.55;;
13269;SDS011;6703;51.994;7.570;2023-07-30T12:33:58;5.03;;;1.20;;
13269;SDS011;6703;51.994;7.570;2023-07-30T12:36:27;6.10;;;1.20;;
13269;SDS011;6703;51.994;7.570;2023-07-30T12:38:55;6.70;;;1.70;;
13269;SDS011;6703;51.994;7.570;2023-07-30T12:41:34;3.28;;;0.85;;
13269;SDS011;6703;51.994;7.570;2023-07-30T12:44:03;4.63;;;1.63;;
13269;SDS011;6703;51.994;7.570;2023-07-30T12:46:31;4.13;;;0.83;;
13269;SDS011;6703;51.994;7.570;2023-07-30T12:48:59;3.08;;;0.90;;
13269;SDS011;6703;51.994;7.570;2023-07-30T12:51:32;3.55;;;0.90;;
13269;SDS011;6703;51.994;7.570;2023-07-30T12:54:00;3.17;;;0.60;;
13269;SDS011;6703;51.994;7.570;2023-07-30T12:56:28;3.53;;;0.63;;
13269;SDS011;6703;51.994;7.570;2023-07-30T12:58:55;7.38;;;1.35;;
13269;SDS011;6703;51.994;7.570;2023-07-30T13:01:23;5.05;;;1.63;;
13269;SDS011;6703;51.994;7.570;2023-07-30T13:03:52;3.95;;;0.77;;
13269;SDS011;6703;51.994;7.570;2023-07-30T13:06:20;4.70;;;0.75;;
13269;SDS011;6703;51.994;7.570;2023-07-30T13:08:50;4.03;;;0.68;;
13269;SDS011;6703;51.994;7.570;2023-07-30T13:11:19;7.78;;;1.33;;
13269;SDS011;6703;51.994;7.570;2023-07-30T13:13:47;3.90;;;1.17;;
13269;SDS011;6703;51.994;7.570;2023-07-30T13:16:15;4.03;;;1.10;;
13269;SDS011;6703;51.994;7.570;2023-07-30T13:18:42;2.35;;;0.50;;
13269;SDS011;6703;51.994;7.570;2023-07-30T13:21:10;4.65;;;1.00;;
13269;SDS011;6703;51.994;7.570;2023-07-30T13:23:38;5.10;;;1.00;;
13269;SDS011;6703;51.994;7.570;2023-07-30T13:26:07;5.30;;;1.10;;
13269;SDS011;6703;51.994;7.570;2023-07-30T13:28:34;6.88;;;1.25;;
13269;SDS011;6703;51.994;7.570;2023-07-30T13:31:02;2.95;;;0.95;;
13269;SDS011;6703;51.994;7.570;2023-07-30T13:33:30;4.15;;;0.93;;
13269;SDS011;6703;51.994;7.570;2023-07-30T13:35:58;4.70;;;1.08;;
13269;SDS011;6703;51.994;7.570;2023-07-30T13:38:26;5.35;;;1.10;;
13269;SDS011;6703;51.994;7.570;2023-07-30T13:40:53;4.82;;;1.25;;
13269;SDS011;6703;51.994;7.570;2023-07-30T13:43:23;7.80;;;1.33;;
13269;SDS011;6703;51.994;7.570;2023-07-30T13:46:12;5.82;;;1.15;;
13269;SDS011;6703;51.994;7.570;2023-07-30T13:48:40;3.72;;;0.88;;
13269;SDS011;6703;51.994;7.570;2023-07-30T13:51:07;9.93;;;2.78;;
13269;SDS011;6703;51.994;7.570;2023-07-30T13:53:35;5.50;;;1.63;;
13269;SDS011;6703;51.994;7.570;2023-07-30T13:56:07;8.30;;;1.98;;
13269;SDS011;6703;51.994;7.570;2023-07-30T13:58:36;4.72;;;1.55;;
13269;SDS011;6703;51.994;7.570;2023-07-30T14:01:06;8.68;;;1.85;;
13269;SDS011;6703;51.994;7.570;2023-07-30T14:03:35;14.00;;;4.22;;
13269;SDS011;6703;51.994;7.570;2023-07-30T14:06:03;5.50;;;1.13;;
13269;SDS011;6703;51.994;7.570;2023-07-30T14:08:31;8.00;;;1.83;;
13269;SDS011;6703;51.994;7.570;2023-07-30T14:10:58;7.83;;;3.07;;
13269;SDS011;6703;51.994;7.570;2023-07-30T14:13:27;7.88;;;2.80;;
13269;SDS011;6703;51.994;7.570;2023-07-30T14:15:56;10.18;;;1.38;;
13269;SDS011;6703;51.994;7.570;2023-07-30T14:18:24;6.53;;;1.92;;
13269;SDS011;6703;51.994;7.570;2023-07-30T14:21:06;5.90;;;1.10;;
13269;SDS011;6703;51.994;7.570;2023-07-30T14:23:34;4.93;;;1.13;;
13269;SDS011;6703;51.994;7.570;2023-07-30T14:26:01;7.88;;;1.20;;
13269;SDS011;6703;51.994;7.570;2023-07-30T14:28:30;6.37;;;1.20;;
13269;SDS011;6703;51.994;7.570;2023-07-30T14:30:59;8.93;;;1.38;;
13269;SDS011;6703;51.994;7.570;2023-07-30T14:33:26;6.25;;;1.35;;
13269;SDS011;6703;51.994;7.570;2023-07-30T14:35:55;7.95;;;1.10;;
13269;SDS011;6703;51.994;7.570;2023-07-30T14:38:22;10.90;;;1.40;;
13269;SDS011;6703;51.994;7.570;2023-07-30T14:40:50;7.53;;;1.63;;
13269;SDS011;6703;51.994;7.570;2023-07-30T14:43:18;11.18;;;2.50;;
13269;SDS011;6703;51.994;7.570;2023-07-30T14:45:45;8.98;;;2.13;;
13269;SDS011;6703;51.994;7.570;2023-07-30T14:48:15;9.57;;;1.40;;
13269;SDS011;6703;51.994;7.570;2023-07-30T14:50:42;6.28;;;1.33;;
13269;SDS011;6703;51.994;7.570;2023-07-30T14:53:10;6.43;;;1.80;;
13269;SDS011;6703;51.994;7.570;2023-07-30T14:55:38;5.72;;;1.45;;
13269;SDS011;6703;51.994;7.570;2023-07-30T14:58:05;7.68;;;1.60;;
13269;SDS011;6703;51.994;7.570;2023-07-30T15:00:37;7.22;;;1.50;;
13269;SDS011;6703;51.994;7.570;2023-07-30T15:03:05;7.93;;;1.60;;
13269;SDS011;6703;51.994;7.570;2023-07-30T15:05:34;5.18;;;1.83;;
13269;SDS011;6703;51.994;7.570;2023-07-30T15:08:02;7.33;;;1.40;;